Cumberland, Canada
Current Conditions -  °F | °C
As of 1:00 AM on Monday 24 Nov 2014 (Local Time) from CYQQ Reporting Station
Overcast Overcast  
Wind Chill: 37°   Ceiling: 15000
Heat Index: 37°   Visibility: 20mi
Dew Point: 37°   Wind: 0mph
Humidity: 100%   Direction: NA
Pressure: 30.29"   Gusts: NA
Location:  49.62°N, 125.02°W
Report Text: CYQQ 240900Z 00000KT 20SM FEW110 OVC150 03/03 A3029 RMK AC2AC6 SLP258
Loading
Personal Weather Stations






























Interactive Weather Map New forecast layout! Learn more

10-Day Weather Forecast

Advertisements
Track Severe Weather on mobile